Archival Weather

Rochelle Muni/Koritz Fld

Rochelle, Illinois (KRPJ)

Report from: Sunday, February 5, 2023 1:15 PM CST
Current time: Friday, April 19, 2024 4:17 AM CDT

Current weather – Weather history – Daily summaries
Weather forecast

Temperature2.0°C (35.6°F)
Wind chill-2.5°C (27.5°F)
Dew point-0.8°C (30.6°F)
Winds 10 kts (5.1 m/s, 11.5 mph) West (280°)
Visibility10 mi. (16.1 km)
Clouds Sky clear
Altimeter29.92 in.Hg (1013 mB)
Relative humidity82 %
Density altitude-1,492 ft. (-455 m)
Remarks Fully automated report
Automated weather observing station with precipitation discriminator
Lightning detection system not operating
Flight conditions Visual Meteorological Conditions
Raw dataKRPJ 051915Z AUTO 28010KT 10SM CLR 02/M01 A2992 RMK AO2 T00201008 TSNO
An error has occurred. This application may no longer respond until reloaded. Reload 🗙